createdAt,value
2019-04-27T00:00:10.475Z,11.20
2019-04-27T00:02:43.715Z,11.22
2019-04-27T00:05:26.595Z,11.80
2019-04-27T00:10:29.650Z,11.35
2019-04-27T00:13:02.197Z,11.88
2019-04-27T00:15:45.883Z,11.35
2019-04-27T00:18:34.180Z,12.60
2019-04-27T00:21:07.735Z,12.35
2019-04-27T00:23:38.671Z,12.35
2019-04-27T00:26:06.989Z,10.90
2019-04-27T00:28:36.007Z,11.40
2019-04-27T00:31:04.919Z,12.45
2019-04-27T00:33:33.988Z,11.78
2019-04-27T00:36:08.266Z,11.50
2019-04-27T00:38:55.592Z,11.83
2019-04-27T00:41:24.698Z,11.30
2019-04-27T00:43:53.505Z,11.83
2019-04-27T00:46:22.908Z,11.48
2019-04-27T00:48:53.283Z,11.75
2019-04-27T00:51:23.143Z,11.60
2019-04-27T00:53:53.543Z,11.80
2019-04-27T00:56:40.775Z,11.95
2019-04-27T00:59:11.423Z,11.48
2019-04-27T01:01:44.584Z,11.53
2019-04-27T01:04:17.827Z,11.68
2019-04-27T01:06:46.738Z,12.85
2019-04-27T01:09:16.055Z,11.70
2019-04-27T01:11:45.066Z,12.28
2019-04-27T01:14:14.000Z,11.08
2019-04-27T01:16:42.867Z,12.65
2019-04-27T01:19:11.684Z,12.68
2019-04-27T01:21:40.595Z,11.57
2019-04-27T01:24:09.400Z,12.05
2019-04-27T01:26:52.026Z,12.03
2019-04-27T01:29:22.463Z,12.63
2019-04-27T01:31:51.371Z,12.43
2019-04-27T01:34:20.363Z,13.03
2019-04-27T01:36:49.380Z,12.53
2019-04-27T01:39:18.974Z,13.48
2019-04-27T01:41:49.111Z,12.80
2019-04-27T01:44:19.433Z,13.03
2019-04-27T01:46:48.777Z,14.03
2019-04-27T01:49:19.399Z,13.85
2019-04-27T01:51:49.240Z,14.33
2019-04-27T01:54:19.934Z,14.15
2019-04-27T01:56:49.236Z,13.32
2019-04-27T01:59:19.789Z,13.58
2019-04-27T02:02:10.598Z,13.83
2019-04-27T02:04:41.457Z,13.48
2019-04-27T02:07:12.002Z,13.85
2019-04-27T02:09:41.013Z,13.88
2019-04-27T02:12:09.927Z,13.80
2019-04-27T02:14:39.053Z,13.28
2019-04-27T02:17:09.728Z,14.63
2019-04-27T02:19:39.277Z,14.38
2019-04-27T02:22:08.672Z,13.43
2019-04-27T02:24:39.038Z,13.90
2019-04-27T02:27:08.993Z,14.40
2019-04-27T02:29:48.746Z,13.98
2019-04-27T02:32:35.672Z,15.10
2019-04-27T02:35:06.325Z,14.53
2019-04-27T02:37:35.230Z,14.45
2019-04-27T02:40:05.825Z,14.65
2019-04-27T02:42:36.426Z,15.55
2019-04-27T02:45:06.484Z,15.08
2019-04-27T02:47:35.365Z,14.73
2019-04-27T02:50:04.731Z,14.40
2019-04-27T02:52:35.227Z,15.35
2019-04-27T02:55:05.360Z,13.68
2019-04-27T02:57:34.475Z,14.38
2019-04-27T03:00:03.495Z,15.18
2019-04-27T03:02:34.034Z,15.30
2019-04-27T03:05:02.934Z,15.85
2019-04-27T03:07:31.846Z,16.10
2019-04-27T03:10:02.284Z,14.33
2019-04-27T03:12:32.918Z,15.83
2019-04-27T03:15:15.770Z,15.15
2019-04-27T03:17:55.517Z,15.45
2019-04-27T03:20:34.965Z,15.90
2019-04-27T03:23:05.614Z,16.45
2019-04-27T03:25:36.057Z,15.75
2019-04-27T03:28:06.601Z,16.30
2019-04-27T03:30:36.486Z,16.30
2019-04-27T03:33:05.658Z,16.23
2019-04-27T03:35:37.352Z,16.67
2019-04-27T03:38:14.298Z,16.60
2019-04-27T03:40:43.305Z,17.10
2019-04-27T03:43:13.776Z,17.00
2019-04-27T03:45:42.675Z,16.32
2019-04-27T03:48:11.473Z,16.55
2019-04-27T03:50:44.380Z,16.82
2019-04-27T03:53:31.301Z,17.20
2019-04-27T03:56:20.010Z,16.50
2019-04-27T03:58:53.454Z,16.55
2019-04-27T04:01:22.390Z,16.87
2019-04-27T04:03:51.186Z,15.98
2019-04-27T04:06:20.070Z,17.10
2019-04-27T04:08:50.599Z,16.00
2019-04-27T04:11:21.497Z,17.32
2019-04-27T04:13:51.928Z,16.12
2019-04-27T04:16:31.180Z,16.67
2019-04-27T04:19:04.688Z,16.80
2019-04-27T04:21:33.605Z,17.12
2019-04-27T04:24:02.977Z,16.77
2019-04-27T04:26:32.688Z,16.05
2019-04-27T04:29:02.263Z,16.63
2019-04-27T04:31:33.211Z,16.42
2019-04-27T04:34:01.615Z,17.25
2019-04-27T04:36:30.450Z,17.15
2019-04-27T04:39:00.443Z,16.73
2019-04-27T04:41:31.305Z,16.70
2019-04-27T04:44:20.258Z,17.02
2019-04-27T04:47:00.394Z,17.30
2019-04-27T04:49:29.776Z,18.17
2019-04-27T04:51:59.401Z,17.75
2019-04-27T04:54:30.056Z,18.62
2019-04-27T04:56:59.481Z,19.07
2019-04-27T04:59:29.150Z,19.35
2019-04-27T05:02:00.305Z,20.35
2019-04-27T05:04:29.192Z,18.48
2019-04-27T05:06:59.218Z,19.00
2019-04-27T05:09:29.596Z,20.48
2019-04-27T05:11:58.771Z,18.77
2019-04-27T05:14:28.858Z,19.40
2019-04-27T05:16:59.217Z,18.55
2019-04-27T05:19:28.860Z,18.10
2019-04-27T05:21:59.321Z,17.42
2019-04-27T05:24:29.301Z,16.83
2019-04-27T05:26:59.066Z,16.73
2019-04-27T05:29:29.306Z,17.07
2019-04-27T05:31:59.190Z,15.38
2019-04-27T05:34:29.436Z,17.25
2019-04-27T05:36:59.319Z,16.70
2019-04-27T05:39:30.003Z,17.12
2019-04-27T05:41:59.670Z,15.90
2019-04-27T05:44:45.508Z,16.60
2019-04-27T05:47:14.348Z,15.55
2019-04-27T05:49:44.735Z,15.43
2019-04-27T05:52:29.787Z,15.95
2019-04-27T05:54:59.492Z,15.70
2019-04-27T05:57:30.810Z,15.88
2019-04-27T06:00:01.868Z,16.45
2019-04-27T06:02:30.612Z,16.80
2019-04-27T06:05:00.006Z,16.87
2019-04-27T06:07:29.770Z,17.17
2019-04-27T06:09:59.899Z,17.80
2019-04-27T06:12:29.820Z,15.93
2019-04-27T06:15:00.025Z,16.17
2019-04-27T06:17:29.874Z,16.87
2019-04-27T06:19:59.697Z,16.80
2019-04-27T06:22:29.195Z,16.75
2019-04-27T06:25:00.026Z,15.98
2019-04-27T06:27:30.813Z,14.63
2019-04-27T06:29:59.851Z,15.80
2019-04-27T06:32:29.532Z,15.72
2019-04-27T06:34:59.164Z,15.95
2019-04-27T06:37:29.298Z,15.40
2019-04-27T06:39:59.778Z,16.25
2019-04-27T06:42:29.615Z,14.85
2019-04-27T06:44:59.861Z,14.60
2019-04-27T06:47:29.474Z,13.85
2019-04-27T06:49:58.875Z,14.68
2019-04-27T06:52:29.164Z,13.75
2019-04-27T06:55:00.331Z,14.10
2019-04-27T06:57:29.256Z,13.80
2019-04-27T06:59:59.192Z,13.68
2019-04-27T07:02:29.084Z,12.75
2019-04-27T07:04:59.217Z,13.13
2019-04-27T07:07:29.439Z,13.03
2019-04-27T07:09:59.128Z,10.60
2019-04-27T07:12:28.819Z,11.55
2019-04-27T07:14:59.222Z,10.53
2019-04-27T07:17:28.957Z,9.70
2019-04-27T07:19:59.435Z,10.90
2019-04-27T07:22:29.904Z,10.48
2019-04-27T07:24:59.101Z,10.70
2019-04-27T07:27:29.130Z,10.00
2019-04-27T07:30:00.823Z,10.80
2019-04-27T07:32:29.227Z,10.90
2019-04-27T07:34:58.623Z,11.53
2019-04-27T07:37:29.248Z,10.58
2019-04-27T07:39:59.157Z,10.78
2019-04-27T07:42:30.282Z,10.57
2019-04-27T07:45:11.131Z,9.55
2019-04-27T07:47:41.538Z,11.78
2019-04-27T07:50:10.450Z,11.83
2019-04-27T07:52:40.538Z,11.40
2019-04-27T07:55:09.799Z,10.70
2019-04-27T07:57:39.965Z,11.70
2019-04-27T08:00:09.958Z,12.50
2019-04-27T08:02:39.065Z,10.82
2019-04-27T08:05:09.434Z,9.93
2019-04-27T08:07:39.168Z,10.15
2019-04-27T08:10:09.773Z,10.45
2019-04-27T08:15:08.888Z,9.68
2019-04-27T08:17:40.249Z,9.60
2019-04-27T08:20:09.318Z,10.05
2019-04-27T08:22:38.951Z,10.03
2019-04-27T08:25:09.461Z,9.93
2019-04-27T08:30:13.234Z,9.70
2019-04-27T08:32:43.677Z,9.78
2019-04-27T08:35:12.684Z,8.68
2019-04-27T08:37:41.491Z,9.00
2019-04-27T08:40:11.003Z,9.15
2019-04-27T08:42:39.823Z,8.57
2019-04-27T08:45:09.531Z,8.50
2019-04-27T08:47:39.439Z,8.00
2019-04-27T08:50:09.234Z,8.55
2019-04-27T08:52:39.423Z,7.65
2019-04-27T08:55:09.557Z,8.20
2019-04-27T08:57:39.594Z,8.33
2019-04-27T09:00:09.686Z,7.65
2019-04-27T09:02:44.573Z,7.17
2019-04-27T09:05:09.681Z,7.37
2019-04-27T09:07:40.267Z,7.00
2019-04-27T09:10:11.211Z,7.25
2019-04-27T09:12:59.973Z,7.87
2019-04-27T09:15:36.659Z,7.90
2019-04-27T09:18:05.466Z,7.67
2019-04-27T09:20:39.287Z,7.45
2019-04-27T09:23:09.785Z,7.55
2019-04-27T09:25:39.610Z,7.67
2019-04-27T09:28:08.860Z,7.90
2019-04-27T09:30:39.259Z,8.15
2019-04-27T09:33:08.737Z,7.60
2019-04-27T09:35:38.567Z,8.15
2019-04-27T09:38:07.578Z,8.20
2019-04-27T09:40:36.380Z,8.18
2019-04-27T09:43:05.290Z,7.47
2019-04-27T09:45:34.206Z,8.58
2019-04-27T09:48:03.216Z,8.55
2019-04-27T09:50:32.022Z,7.92
2019-04-27T09:53:01.024Z,8.05
2019-04-27T09:55:29.794Z,8.00
2019-04-27T09:57:58.633Z,8.10
2019-04-27T10:00:28.146Z,8.23
2019-04-27T10:02:57.166Z,8.80
2019-04-27T10:05:26.476Z,7.95
2019-04-27T10:07:56.937Z,8.40
2019-04-27T10:10:26.795Z,8.73
2019-04-27T10:12:56.846Z,9.78
2019-04-27T10:15:26.665Z,9.68
2019-04-27T10:17:57.576Z,9.80
2019-04-27T10:20:26.275Z,9.68
2019-04-27T10:22:56.424Z,9.55
2019-04-27T10:25:27.367Z,9.98
2019-04-27T10:27:59.344Z,9.10
2019-04-27T10:30:29.396Z,9.65
2019-04-27T10:32:59.548Z,9.80
2019-04-27T10:35:28.423Z,9.73
2019-04-27T10:37:58.249Z,9.45
2019-04-27T10:40:27.055Z,9.25
2019-04-27T10:42:56.133Z,10.00
2019-04-27T10:45:25.237Z,9.78
2019-04-27T10:47:55.789Z,9.28
2019-04-27T10:50:26.600Z,9.38
2019-04-27T10:52:58.813Z,11.53
2019-04-27T10:55:26.299Z,10.63
2019-04-27T10:57:55.434Z,11.50
2019-04-27T11:00:28.656Z,11.57
2019-04-27T11:02:58.343Z,11.50
2019-04-27T11:05:31.895Z,10.58
2019-04-27T11:08:01.109Z,10.98
2019-04-27T11:10:30.019Z,11.18
2019-04-27T11:12:58.925Z,12.07
2019-04-27T11:15:28.042Z,11.88
2019-04-27T11:17:56.945Z,11.88
2019-04-27T11:20:27.712Z,11.88
2019-04-27T11:23:06.651Z,10.25
2019-04-27T11:25:26.820Z,9.50
2019-04-27T11:27:57.667Z,10.38
2019-04-27T11:30:26.192Z,9.83
2019-04-27T11:32:59.029Z,10.95
2019-04-27T11:35:33.013Z,10.53
2019-04-27T11:38:02.025Z,9.55
2019-04-27T11:40:31.852Z,10.20
2019-04-27T11:43:00.759Z,9.25
2019-04-27T11:45:29.668Z,9.95
2019-04-27T11:47:58.784Z,9.95
2019-04-27T11:50:27.689Z,9.00
2019-04-27T11:52:56.814Z,10.13
2019-04-27T11:55:27.197Z,9.45
2019-04-27T11:57:56.259Z,9.20
2019-04-27T12:00:27.519Z,9.70
2019-04-27T12:05:26.134Z,9.80
2019-04-27T12:07:56.127Z,8.83
2019-04-27T12:10:26.262Z,9.58
2019-04-27T12:12:56.236Z,8.98
2019-04-27T12:15:26.225Z,9.47
2019-04-27T12:17:56.155Z,9.80
2019-04-27T12:20:25.811Z,9.53
2019-04-27T12:22:54.874Z,9.23
2019-04-27T12:25:23.756Z,8.80
2019-04-27T12:27:56.964Z,9.43
2019-04-27T12:30:30.990Z,9.10
2019-04-27T12:32:59.797Z,9.08
2019-04-27T12:35:28.599Z,9.70
2019-04-27T12:37:57.507Z,8.93
2019-04-27T12:40:26.832Z,9.45
2019-04-27T12:42:56.757Z,8.98
2019-04-27T12:45:26.709Z,9.55
2019-04-27T12:47:56.634Z,8.97
2019-04-27T12:50:26.164Z,9.20
2019-04-27T12:52:56.798Z,9.30
2019-04-27T12:55:44.018Z,9.73
2019-04-27T12:58:16.297Z,9.73
2019-04-27T13:00:58.721Z,9.25
2019-04-27T13:03:27.526Z,9.65
2019-04-27T13:05:56.329Z,9.95
2019-04-27T13:08:25.993Z,9.03
2019-04-27T13:10:55.400Z,9.30
2019-04-27T13:13:26.645Z,9.48
2019-04-27T13:15:56.874Z,9.48
2019-04-27T13:18:25.937Z,8.83
2019-04-27T13:20:55.083Z,8.68
2019-04-27T13:23:24.007Z,9.05
2019-04-27T13:25:53.118Z,8.73
2019-04-27T13:28:21.921Z,8.98
2019-04-27T13:30:50.731Z,9.53
2019-04-27T13:33:19.638Z,8.53
2019-04-27T13:35:48.550Z,8.68
2019-04-27T13:38:18.132Z,9.00
2019-04-27T13:40:48.922Z,9.33
2019-04-27T13:43:34.921Z,8.18
2019-04-27T13:46:09.593Z,9.80
2019-04-27T13:48:56.582Z,10.35
2019-04-27T13:51:33.060Z,8.60
2019-04-27T13:54:14.099Z,8.75
2019-04-27T13:56:32.409Z,9.20
2019-04-27T13:59:02.892Z,8.88
2019-04-27T14:01:32.052Z,9.68
2019-04-27T14:04:00.981Z,8.70
2019-04-27T14:06:29.885Z,8.65
2019-04-27T14:08:58.907Z,9.20
2019-04-27T14:11:29.028Z,9.35
2019-04-27T14:13:58.043Z,9.23
2019-04-27T14:16:28.994Z,8.25
2019-04-27T14:18:59.322Z,9.45
2019-04-27T14:21:29.578Z,8.93
2019-04-27T14:23:58.714Z,9.25
2019-04-27T14:26:28.441Z,9.50
2019-04-27T14:28:58.380Z,9.68
2019-04-27T14:31:29.095Z,9.50
2019-04-27T14:33:58.705Z,10.45
2019-04-27T14:36:29.213Z,10.28
2019-04-27T14:38:58.791Z,10.45
2019-04-27T14:41:28.207Z,10.70
2019-04-27T14:44:07.464Z,10.25
2019-04-27T14:46:28.268Z,11.10
2019-04-27T14:48:58.512Z,10.30
2019-04-27T14:51:27.317Z,11.08
2019-04-27T14:53:56.124Z,10.98
2019-04-27T14:56:25.052Z,11.20
2019-04-27T14:58:54.433Z,11.90
2019-04-27T15:01:23.255Z,10.10
2019-04-27T15:03:52.163Z,9.93
2019-04-27T15:06:22.080Z,9.40
2019-04-27T15:08:51.105Z,9.43
2019-04-27T15:11:20.009Z,8.90
2019-04-27T15:13:51.004Z,9.25
2019-04-27T15:16:19.464Z,8.90
2019-04-27T15:18:50.137Z,8.53
2019-04-27T15:21:20.311Z,8.40
2019-04-27T15:23:49.467Z,8.10
2019-04-27T15:26:20.348Z,8.65
2019-04-27T15:28:51.155Z,8.45
2019-04-27T15:31:26.966Z,8.00
2019-04-27T15:34:13.750Z,8.15
2019-04-27T15:36:46.955Z,8.53
2019-04-27T15:39:33.664Z,7.83
2019-04-27T15:42:08.142Z,7.78
2019-04-27T15:44:36.559Z,8.20
2019-04-27T15:47:08.486Z,8.15
2019-04-27T15:49:36.065Z,8.00
2019-04-27T15:52:04.953Z,8.30
2019-04-27T15:54:33.976Z,7.95
2019-04-27T15:57:05.723Z,9.03
2019-04-27T15:59:39.412Z,7.75
2019-04-27T16:02:05.521Z,7.78
2019-04-27T16:04:34.802Z,7.78
2019-04-27T16:07:03.841Z,7.72
2019-04-27T16:09:32.644Z,8.18
2019-04-27T16:12:09.955Z,7.85
2019-04-27T16:14:31.975Z,7.42
2019-04-27T16:17:03.057Z,8.13
2019-04-27T16:19:31.344Z,7.72
2019-04-27T16:22:00.153Z,7.72
2019-04-27T16:24:29.157Z,7.87
2019-04-27T16:26:59.069Z,7.37
2019-04-27T16:29:31.561Z,7.97
2019-04-27T16:32:02.789Z,7.67
2019-04-27T16:34:32.976Z,7.58
2019-04-27T16:37:00.249Z,7.30
2019-04-27T16:39:29.158Z,7.90
2019-04-27T16:41:58.718Z,7.95
2019-04-27T16:44:29.426Z,7.95
2019-04-27T16:46:58.342Z,7.85
2019-04-27T16:49:28.918Z,7.42
2019-04-27T16:51:59.076Z,8.23
2019-04-27T16:54:28.329Z,7.55
2019-04-27T16:57:04.905Z,7.40
2019-04-27T16:59:42.657Z,7.17
2019-04-27T17:01:58.537Z,7.83
2019-04-27T17:04:29.112Z,7.05
2019-04-27T17:06:59.080Z,7.10
2019-04-27T17:09:29.211Z,7.63
2019-04-27T17:11:59.779Z,7.72
2019-04-27T17:14:42.121Z,7.28
2019-04-27T17:17:19.652Z,8.20
2019-04-27T17:19:51.919Z,8.03
2019-04-27T17:22:20.919Z,8.55
2019-04-27T17:24:49.806Z,8.18
2019-04-27T17:27:21.994Z,8.05
2019-04-27T17:29:58.239Z,8.48
2019-04-27T17:32:25.562Z,9.03
2019-04-27T17:34:55.534Z,8.33
2019-04-27T17:37:25.161Z,8.03
2019-04-27T17:39:58.070Z,8.53
2019-04-27T17:42:29.215Z,9.43
2019-04-27T17:44:57.675Z,8.80
2019-04-27T17:47:26.880Z,9.00
2019-04-27T17:49:58.268Z,9.18
2019-04-27T17:52:26.844Z,9.98
2019-04-27T17:54:55.748Z,9.33
2019-04-27T17:57:26.537Z,9.38
2019-04-27T17:59:58.896Z,9.30
2019-04-27T18:02:25.748Z,8.78
2019-04-27T18:04:54.763Z,9.63
2019-04-27T18:07:23.769Z,8.93
2019-04-27T18:09:52.676Z,9.18
2019-04-27T18:12:21.685Z,9.80
2019-04-27T18:14:50.598Z,9.23
2019-04-27T18:17:20.018Z,9.90
2019-04-27T18:19:50.457Z,8.95
2019-04-27T18:22:19.883Z,9.08
2019-04-27T18:24:55.609Z,9.83
2019-04-27T18:27:28.333Z,9.85
2019-04-27T18:29:59.352Z,10.35
2019-04-27T18:34:58.473Z,10.75
2019-04-27T18:37:29.187Z,10.95
2019-04-27T18:39:58.498Z,10.63
2019-04-27T18:42:31.089Z,10.85
2019-04-27T18:45:06.103Z,10.40
2019-04-27T18:47:31.246Z,9.48
2019-04-27T18:50:10.877Z,10.10
2019-04-27T18:52:40.707Z,9.90
2019-04-27T18:55:11.407Z,10.25
2019-04-27T18:57:40.097Z,10.43
2019-04-27T19:00:11.359Z,10.48
2019-04-27T19:05:09.159Z,10.48
2019-04-27T19:07:38.318Z,9.85
2019-04-27T19:10:08.930Z,11.00
2019-04-27T19:12:39.355Z,11.97
2019-04-27T19:15:08.701Z,11.78
2019-04-27T19:17:38.744Z,11.97
2019-04-27T19:20:10.450Z,12.43
2019-04-27T19:22:39.208Z,11.60
2019-04-27T19:25:10.472Z,11.40
2019-04-27T19:30:25.665Z,11.85
2019-04-27T19:32:54.589Z,11.50
2019-04-27T19:35:23.399Z,10.65
2019-04-27T19:37:53.971Z,11.97
2019-04-27T19:40:22.950Z,12.47
2019-04-27T19:42:51.843Z,12.10
2019-04-27T19:45:21.156Z,11.55
2019-04-27T19:47:50.389Z,12.30
2019-04-27T19:50:19.368Z,12.00
2019-04-27T19:52:50.160Z,12.33
2019-04-27T19:55:19.000Z,12.60
2019-04-27T19:57:49.756Z,12.58
2019-04-27T20:00:23.738Z,14.47
2019-04-27T20:02:52.740Z,14.05
2019-04-27T20:05:21.856Z,14.85
2019-04-27T20:07:50.866Z,12.70
2019-04-27T20:10:20.285Z,13.10
2019-04-27T20:12:50.863Z,13.18
2019-04-27T20:15:19.940Z,11.95
2019-04-27T20:17:48.753Z,12.68
2019-04-27T20:20:17.652Z,11.90
2019-04-27T20:22:46.566Z,12.00
2019-04-27T20:25:15.572Z,15.03
2019-04-27T20:27:48.987Z,12.63
2019-04-27T20:30:15.469Z,12.82
2019-04-27T20:32:44.450Z,13.05
2019-04-27T20:35:13.350Z,13.20
2019-04-27T20:37:42.261Z,11.78
2019-04-27T20:40:11.754Z,11.43
2019-04-27T20:42:41.537Z,12.60
2019-04-27T20:45:12.001Z,12.35
2019-04-27T20:47:41.168Z,11.73
2019-04-27T20:50:10.209Z,11.45
2019-04-27T20:52:43.799Z,10.98
2019-04-27T20:55:13.542Z,10.85
2019-04-27T20:57:42.369Z,10.98
2019-04-27T21:00:12.356Z,10.75
2019-04-27T21:02:43.007Z,10.35
2019-04-27T21:05:25.456Z,10.82
2019-04-27T21:07:55.975Z,11.03
2019-04-27T21:10:24.876Z,11.20
2019-04-27T21:12:53.887Z,11.15
2019-04-27T21:15:22.793Z,10.05
2019-04-27T21:17:51.706Z,10.23
2019-04-27T21:20:21.889Z,10.13
2019-04-27T21:22:51.527Z,10.32
2019-04-27T21:25:21.498Z,10.25
2019-04-27T21:27:51.368Z,10.03
2019-04-27T21:30:21.338Z,10.03
2019-04-27T21:32:50.898Z,10.65
2019-04-27T21:35:21.120Z,10.53
2019-04-27T21:37:51.195Z,8.78
2019-04-27T21:40:21.903Z,9.70
2019-04-27T21:42:51.381Z,10.23
2019-04-27T21:45:21.800Z,9.13
2019-04-27T21:47:51.912Z,9.07
2019-04-27T21:50:23.204Z,8.23
2019-04-27T21:53:02.645Z,9.13
2019-04-27T21:55:33.172Z,8.83
2019-04-27T21:58:02.069Z,9.18
2019-04-27T22:00:42.808Z,9.08
2019-04-27T22:03:13.187Z,11.30
2019-04-27T22:05:42.093Z,8.10
2019-04-27T22:08:11.663Z,8.08
2019-04-27T22:10:40.829Z,8.78
2019-04-27T22:13:09.738Z,8.65
2019-04-27T22:15:38.645Z,9.35
2019-04-27T22:18:07.762Z,8.30
2019-04-27T22:20:36.871Z,9.05
2019-04-27T22:23:16.422Z,7.75
2019-04-27T22:25:45.328Z,7.83
2019-04-27T22:28:14.133Z,7.97
2019-04-27T22:30:43.044Z,9.08
2019-04-27T22:33:11.846Z,7.62
2019-04-27T22:35:41.469Z,8.70
2019-04-27T22:38:11.951Z,8.95
2019-04-27T22:40:45.734Z,8.87
2019-04-27T22:43:34.016Z,8.53
2019-04-27T22:46:04.427Z,8.93
2019-04-27T22:48:33.233Z,8.57
2019-04-27T22:51:02.141Z,8.70
2019-04-27T22:53:32.424Z,11.73
2019-04-27T22:56:18.480Z,12.65
2019-04-27T22:59:00.623Z,8.53
2019-04-27T23:01:29.602Z,9.90
2019-04-27T23:04:01.907Z,9.45
2019-04-27T23:06:30.589Z,9.18
2019-04-27T23:08:59.498Z,8.65
2019-04-27T23:11:28.304Z,8.25
2019-04-27T23:13:57.212Z,8.05
2019-04-27T23:16:27.758Z,8.73
2019-04-27T23:18:56.766Z,8.78
2019-04-27T23:21:25.570Z,8.95
2019-04-27T23:23:54.377Z,8.35
2019-04-27T23:26:23.395Z,8.55
2019-04-27T23:28:52.191Z,8.38
2019-04-27T23:31:40.701Z,8.58
2019-04-27T23:34:11.669Z,8.63
2019-04-27T23:36:42.280Z,9.63
2019-04-27T23:39:11.855Z,9.20
2019-04-27T23:41:40.889Z,9.43
2019-04-27T23:44:09.899Z,9.30
2019-04-27T23:46:38.701Z,9.10
2019-04-27T23:49:07.506Z,8.85
2019-04-27T23:51:37.949Z,8.95
2019-04-27T23:54:06.756Z,9.10
2019-04-27T23:56:35.764Z,9.15
2019-04-27T23:59:04.553Z,8.88
